Flugplatz Straßham (UL)

Hier findest Du alle Informationen zum Flugplatz Straßham (UL).

Informationen für Piloten zum Flugplatz Straßham

Hier findest Du alle relevanten Informationen, die Du als Pilot benötigst, um Straßham anzufliegen.

Flugplatz: Straßham ICAO-Code: UL Flugplatz
Frequenz Turm: 123.425 Mhz GAFOR Gebiet: -
Frequenz Ground: 123.425 Mhz Mogas: nein
Platzrunde: W 2200 ft Landegebühr: -
Platzhöhe: Sunrise: 06:21 Uhr UTC
Pisten: 03/21 - 400 m x 30 m, GRAS Sunset: 15:33 Uhr UTC

Mitglieder, die in Straßham fliegen

Flugwetter am Flugplatz Straßham

Die METAR Information stammen aus EDDM (21.91 km entfernt).

METAR Code:
2019/11/15 17:50
EDDM 151750Z 30003KT CAVOK 06/02 Q1002 NOSIG

Flugschulen am Flugplatz Straßham

Am Flugplatz Straßham gibt es leider keine Flugschule.

Benachbarte Flugplätze und Flugschulen

Es gibt 17 weitere Flugplätze in einem Umkreis von 50 km um den Flugplatz Straßham.

Jetzt anmelden

Passwort vergessen

Anzeige: Skymap
Umfrage Archiv

Lasst Ihr Euch bei Überlandflügen von FIS begleiten?

Ja, immer!
51.6 %
Ja, unregelmäßig!
25.8 %
Ja, aber nur selten!
22.6 %
Nein, nie!
0 %
Stimmen: 31 | Diskussion
Anzeige: Roland Aircraft
Statistik Alle Mitglieder

Aktuell sind 31 Besucher online.

Anzeige: VFR Sprechfunk Simulator


Anzeige: Pocket FMS